sensor_id;sensor_type;location;lat;lon;timestamp;pressure;altitude;pressure_sealevel;temperature;humidity
12486;BME280;6307;46.804;11.580;2023-02-28T00:01:25;-21012.13;;;5.33;39.43
12486;BME280;6307;46.804;11.580;2023-02-28T00:03:52;-21013.03;;;5.36;38.95
12486;BME280;6307;46.804;11.580;2023-02-28T00:06:18;-21008.97;;;5.22;39.24
12486;BME280;6307;46.804;11.580;2023-02-28T00:08:45;-20997.22;;;4.83;40.25
12486;BME280;6307;46.804;11.580;2023-02-28T00:11:13;-21003.38;;;5.04;39.98
12486;BME280;6307;46.804;11.580;2023-02-28T00:13:42;-21005.34;;;5.10;39.96
12486;BME280;6307;46.804;11.580;2023-02-28T00:16:18;-21007.00;;;5.16;39.52
12486;BME280;6307;46.804;11.580;2023-02-28T00:18:46;-21005.94;;;5.12;39.71
12486;BME280;6307;46.804;11.580;2023-02-28T00:21:16;-21004.44;;;5.07;40.45
12486;BME280;6307;46.804;11.580;2023-02-28T00:23:43;-21006.41;;;5.14;39.67
12486;BME280;6307;46.804;11.580;2023-02-28T00:26:10;-20999.16;;;4.90;40.26
12486;BME280;6307;46.804;11.580;2023-02-28T00:28:36;-21002.34;;;5.00;39.43
12486;BME280;6307;46.804;11.580;2023-02-28T00:31:02;-21000.81;;;4.95;39.11
12486;BME280;6307;46.804;11.580;2023-02-28T00:33:28;-21006.25;;;5.13;39.23
12486;BME280;6307;46.804;11.580;2023-02-28T00:36:09;-21005.50;;;5.11;39.60
12486;BME280;6307;46.804;11.580;2023-02-28T00:38:38;-21007.59;;;5.18;39.82
12486;BME280;6307;46.804;11.580;2023-02-28T00:41:05;-21006.41;;;5.14;39.14
12486;BME280;6307;46.804;11.580;2023-02-28T00:43:34;-20993.91;;;4.72;40.13
12486;BME280;6307;46.804;11.580;2023-02-28T00:46:02;-21000.53;;;4.94;40.04
12486;BME280;6307;46.804;11.580;2023-02-28T00:48:28;-20989.22;;;4.57;40.25
12486;BME280;6307;46.804;11.580;2023-02-28T00:50:55;-20999.16;;;4.90;39.89
12486;BME280;6307;46.804;11.580;2023-02-28T00:53:21;-20987.88;;;4.52;40.44
12486;BME280;6307;46.804;11.580;2023-02-28T00:55:48;-20997.50;;;4.84;40.27
12486;BME280;6307;46.804;11.580;2023-02-28T00:58:15;-21010.47;;;5.27;39.47
12486;BME280;6307;46.804;11.580;2023-02-28T01:00:41;-21012.56;;;5.34;38.86
12486;BME280;6307;46.804;11.580;2023-02-28T01:03:07;-20999.78;;;4.92;39.94
12486;BME280;6307;46.804;11.580;2023-02-28T01:05:33;-20977.94;;;4.19;40.49
12486;BME280;6307;46.804;11.580;2023-02-28T01:07:59;-20997.38;;;4.84;39.74
12486;BME280;6307;46.804;11.580;2023-02-28T01:10:25;-21014.81;;;5.42;39.17
12486;BME280;6307;46.804;11.580;2023-02-28T01:12:56;-20994.66;;;4.75;39.61
12486;BME280;6307;46.804;11.580;2023-02-28T01:15:22;-21002.94;;;5.02;39.16
12486;BME280;6307;46.804;11.580;2023-02-28T01:17:48;-21014.53;;;5.41;39.04
12486;BME280;6307;46.804;11.580;2023-02-28T01:20:15;-21004.13;;;5.06;39.41
12486;BME280;6307;46.804;11.580;2023-02-28T01:22:41;-20997.06;;;4.83;39.55
12486;BME280;6307;46.804;11.580;2023-02-28T01:25:07;-20988.94;;;4.56;40.30
12486;BME280;6307;46.804;11.580;2023-02-28T01:27:33;-20993.91;;;4.72;40.53
12486;BME280;6307;46.804;11.580;2023-02-28T01:30:01;-20985.00;;;4.43;40.35
12486;BME280;6307;46.804;11.580;2023-02-28T01:32:27;-20996.16;;;4.80;39.86
12486;BME280;6307;46.804;11.580;2023-02-28T01:34:54;-20998.25;;;4.87;39.32
12486;BME280;6307;46.804;11.580;2023-02-28T01:37:20;-21002.19;;;5.00;39.48
12486;BME280;6307;46.804;11.580;2023-02-28T01:39:46;-20996.91;;;4.82;39.76
12486;BME280;6307;46.804;11.580;2023-02-28T01:42:12;-21005.81;;;5.12;39.13
12486;BME280;6307;46.804;11.580;2023-02-28T01:47:55;-20995.41;;;4.77;39.64
12486;BME280;6307;46.804;11.580;2023-02-28T01:50:28;-20999.47;;;4.91;39.57
12486;BME280;6307;46.804;11.580;2023-02-28T01:53:01;-20998.88;;;4.89;40.10
12486;BME280;6307;46.804;11.580;2023-02-28T01:55:31;-20979.28;;;4.24;40.42
12486;BME280;6307;46.804;11.580;2023-02-28T01:58:00;-20973.41;;;4.04;40.85
12486;BME280;6307;46.804;11.580;2023-02-28T02:00:31;-20972.34;;;4.01;41.43
12486;BME280;6307;46.804;11.580;2023-02-28T02:02:59;-20977.34;;;4.17;40.81
12486;BME280;6307;46.804;11.580;2023-02-28T02:05:36;-20987.88;;;4.52;40.29
12486;BME280;6307;46.804;11.580;2023-02-28T02:08:10;-20994.50;;;4.74;40.09
12486;BME280;6307;46.804;11.580;2023-02-28T02:10:44;-21000.97;;;4.96;39.55
12486;BME280;6307;46.804;11.580;2023-02-28T02:40:25;-20968.28;;;3.87;42.07
12486;BME280;6307;46.804;11.580;2023-02-28T02:45:47;-20969.34;;;3.91;42.17
12486;BME280;6307;46.804;11.580;2023-02-28T02:48:29;-20984.13;;;4.40;41.65
12486;BME280;6307;46.804;11.580;2023-02-28T02:51:01;-20988.31;;;4.54;41.02
12486;BME280;6307;46.804;11.580;2023-02-28T02:53:41;-20975.81;;;4.12;42.05
12486;BME280;6307;46.804;11.580;2023-02-28T02:56:16;-20970.72;;;3.95;42.95
12486;BME280;6307;46.804;11.580;2023-02-28T02:58:48;-20969.94;;;3.93;42.03
12486;BME280;6307;46.804;11.580;2023-02-28T03:01:19;-20974.78;;;4.09;41.61
12486;BME280;6307;46.804;11.580;2023-02-28T03:03:58;-20987.72;;;4.52;41.29
12486;BME280;6307;46.804;11.580;2023-02-28T03:06:29;-20983.22;;;4.37;41.21
12486;BME280;6307;46.804;11.580;2023-02-28T03:08:55;-20977.78;;;4.19;41.29
12486;BME280;6307;46.804;11.580;2023-02-28T03:11:21;-20967.25;;;3.84;42.25
12486;BME280;6307;46.804;11.580;2023-02-28T03:25:56;-20981.25;;;4.30;40.57
12486;BME280;6307;46.804;11.580;2023-02-28T03:28:38;-20990.75;;;4.62;40.24
12486;BME280;6307;46.804;11.580;2023-02-28T03:33:56;-20974.63;;;4.08;41.30
12486;BME280;6307;46.804;11.580;2023-02-28T03:36:30;-20964.81;;;3.76;41.87
12486;BME280;6307;46.804;11.580;2023-02-28T03:39:12;-20980.03;;;4.26;41.27
12486;BME280;6307;46.804;11.580;2023-02-28T03:42:04;-20991.94;;;4.66;40.24
12486;BME280;6307;46.804;11.580;2023-02-28T03:44:39;-20996.00;;;4.79;40.11
12486;BME280;6307;46.804;11.580;2023-02-28T03:47:17;-20978.69;;;4.22;40.71
12486;BME280;6307;46.804;11.580;2023-02-28T03:49:57;-20988.78;;;4.55;40.53
12486;BME280;6307;46.804;11.580;2023-02-28T03:52:31;-20987.44;;;4.51;39.97
12486;BME280;6307;46.804;11.580;2023-02-28T03:55:05;-20969.03;;;3.90;41.79
12486;BME280;6307;46.804;11.580;2023-02-28T03:58:07;-20964.06;;;3.73;41.96
12486;BME280;6307;46.804;11.580;2023-02-28T04:00:50;-20963.94;;;3.73;42.10
12486;BME280;6307;46.804;11.580;2023-02-28T04:03:24;-20966.78;;;3.82;41.60
12486;BME280;6307;46.804;11.580;2023-02-28T04:05:52;-20961.50;;;3.65;42.42
12486;BME280;6307;46.804;11.580;2023-02-28T04:08:19;-20980.03;;;4.26;40.63
12486;BME280;6307;46.804;11.580;2023-02-28T04:10:53;-20970.41;;;3.94;41.59
12486;BME280;6307;46.804;11.580;2023-02-28T04:13:23;-20984.13;;;4.40;40.58
12486;BME280;6307;46.804;11.580;2023-02-28T04:15:49;-20973.41;;;4.04;41.40
12486;BME280;6307;46.804;11.580;2023-02-28T04:18:15;-20977.19;;;4.17;41.13
12486;BME280;6307;46.804;11.580;2023-02-28T04:20:41;-20974.16;;;4.07;41.33
12486;BME280;6307;46.804;11.580;2023-02-28T04:23:07;-20965.88;;;3.79;41.77
12486;BME280;6307;46.804;11.580;2023-02-28T04:25:33;-20977.94;;;4.19;41.28
12486;BME280;6307;46.804;11.580;2023-02-28T04:27:59;-20979.13;;;4.23;40.80
12486;BME280;6307;46.804;11.580;2023-02-28T04:30:25;-20977.47;;;4.18;41.51
12486;BME280;6307;46.804;11.580;2023-02-28T04:32:52;-20966.94;;;3.83;41.63
12486;BME280;6307;46.804;11.580;2023-02-28T04:35:18;-20960.00;;;3.60;42.31
12486;BME280;6307;46.804;11.580;2023-02-28T04:37:44;-20958.03;;;3.53;42.39
12486;BME280;6307;46.804;11.580;2023-02-28T04:40:10;-20966.63;;;3.82;42.00
12486;BME280;6307;46.804;11.580;2023-02-28T04:42:36;-20961.50;;;3.65;41.42
12486;BME280;6307;46.804;11.580;2023-02-28T04:45:03;-20966.78;;;3.82;41.79
12486;BME280;6307;46.804;11.580;2023-02-28T04:47:30;-20967.53;;;3.85;41.39
12486;BME280;6307;46.804;11.580;2023-02-28T04:49:56;-20960.75;;;3.62;42.38
12486;BME280;6307;46.804;11.580;2023-02-28T04:52:22;-20975.69;;;4.12;40.94
12486;BME280;6307;46.804;11.580;2023-02-28T04:54:48;-20971.47;;;3.98;41.39
12486;BME280;6307;46.804;11.580;2023-02-28T04:57:14;-20966.03;;;3.80;41.79
12486;BME280;6307;46.804;11.580;2023-02-28T04:59:41;-20969.03;;;3.90;41.58
12486;BME280;6307;46.804;11.580;2023-02-28T05:02:07;-20964.97;;;3.76;41.76
12486;BME280;6307;46.804;11.580;2023-02-28T05:04:34;-20978.25;;;4.20;40.77
12486;BME280;6307;46.804;11.580;2023-02-28T05:07:01;-20967.69;;;3.85;40.92
12486;BME280;6307;46.804;11.580;2023-02-28T05:09:28;-20978.09;;;4.20;40.75
12486;BME280;6307;46.804;11.580;2023-02-28T05:11:55;-20980.50;;;4.28;41.02
12486;BME280;6307;46.804;11.580;2023-02-28T05:14:21;-20975.69;;;4.12;41.29
12486;BME280;6307;46.804;11.580;2023-02-28T05:16:47;-20948.84;;;3.23;42.55
12486;BME280;6307;46.804;11.580;2023-02-28T05:19:13;-20965.44;;;3.78;41.79
12486;BME280;6307;46.804;11.580;2023-02-28T05:21:41;-20967.69;;;3.85;41.71
12486;BME280;6307;46.804;11.580;2023-02-28T05:24:18;-20976.13;;;4.13;40.91
12486;BME280;6307;46.804;11.580;2023-02-28T05:26:51;-20961.66;;;3.65;42.36
12486;BME280;6307;46.804;11.580;2023-02-28T05:29:18;-20960.59;;;3.62;42.26
12486;BME280;6307;46.804;11.580;2023-02-28T05:31:45;-20961.22;;;3.64;42.52
12486;BME280;6307;46.804;11.580;2023-02-28T05:34:11;-20959.84;;;3.59;42.57
12486;BME280;6307;46.804;11.580;2023-02-28T05:36:38;-20953.69;;;3.39;43.11
12486;BME280;6307;46.804;11.580;2023-02-28T05:39:07;-20974.16;;;4.07;41.26
12486;BME280;6307;46.804;11.580;2023-02-28T05:41:38;-20974.31;;;4.07;41.56
12486;BME280;6307;46.804;11.580;2023-02-28T05:44:08;-20975.38;;;4.11;41.15
12486;BME280;6307;46.804;11.580;2023-02-28T05:46:35;-20973.41;;;4.04;42.05
12486;BME280;6307;46.804;11.580;2023-02-28T05:49:01;-20965.88;;;3.79;41.26
12486;BME280;6307;46.804;11.580;2023-02-28T05:51:27;-20978.25;;;4.20;40.92
12486;BME280;6307;46.804;11.580;2023-02-28T05:53:54;-20978.53;;;4.21;40.75
12486;BME280;6307;46.804;11.580;2023-02-28T05:56:23;-20960.47;;;3.61;41.78
12486;BME280;6307;46.804;11.580;2023-02-28T05:58:49;-20980.66;;;4.28;41.16
12486;BME280;6307;46.804;11.580;2023-02-28T06:01:45;-20953.06;;;3.37;42.21
12486;BME280;6307;46.804;11.580;2023-02-28T06:04:16;-20969.19;;;3.90;41.54
12486;BME280;6307;46.804;11.580;2023-02-28T06:06:47;-20952.91;;;3.36;42.35
12486;BME280;6307;46.804;11.580;2023-02-28T06:09:14;-20971.16;;;3.97;41.72
12486;BME280;6307;46.804;11.580;2023-02-28T06:11:41;-20969.34;;;3.91;41.77
12486;BME280;6307;46.804;11.580;2023-02-28T06:14:14;-20981.69;;;4.32;41.10
12486;BME280;6307;46.804;11.580;2023-02-28T06:16:42;-20958.50;;;3.55;42.48
12486;BME280;6307;46.804;11.580;2023-02-28T06:19:09;-20950.81;;;3.29;42.97
12486;BME280;6307;46.804;11.580;2023-02-28T06:21:36;-20957.00;;;3.50;43.37
12486;BME280;6307;46.804;11.580;2023-02-28T06:24:03;-20973.56;;;4.05;42.40
12486;BME280;6307;46.804;11.580;2023-02-28T06:26:29;-20965.44;;;3.78;43.21
12486;BME280;6307;46.804;11.580;2023-02-28T06:28:56;-20968.28;;;3.87;42.66
12486;BME280;6307;46.804;11.580;2023-02-28T06:31:22;-20956.69;;;3.49;43.70
12486;BME280;6307;46.804;11.580;2023-02-28T06:33:51;-20958.94;;;3.56;43.85
12486;BME280;6307;46.804;11.580;2023-02-28T06:36:17;-20952.03;;;3.33;43.98
12486;BME280;6307;46.804;11.580;2023-02-28T06:38:45;-20959.84;;;3.59;44.29
12486;BME280;6307;46.804;11.580;2023-02-28T06:41:13;-20953.69;;;3.39;44.44
12486;BME280;6307;46.804;11.580;2023-02-28T06:43:41;-20960.16;;;3.60;44.78
12486;BME280;6307;46.804;11.580;2023-02-28T06:46:11;-20954.13;;;3.40;44.29
12486;BME280;6307;46.804;11.580;2023-02-28T06:48:39;-20940.25;;;2.94;45.36
12486;BME280;6307;46.804;11.580;2023-02-28T06:51:07;-20964.69;;;3.75;44.49
12486;BME280;6307;46.804;11.580;2023-02-28T06:53:35;-20966.94;;;3.83;43.75
12486;BME280;6307;46.804;11.580;2023-02-28T06:56:06;-20969.34;;;3.91;43.08
12486;BME280;6307;46.804;11.580;2023-02-28T06:58:35;-20982.75;;;4.35;42.17
12486;BME280;6307;46.804;11.580;2023-02-28T07:01:03;-20981.56;;;4.31;42.39
12486;BME280;6307;46.804;11.580;2023-02-28T07:03:31;-20989.22;;;4.57;41.34
12486;BME280;6307;46.804;11.580;2023-02-28T07:05:57;-20989.53;;;4.58;41.45
12486;BME280;6307;46.804;11.580;2023-02-28T07:08:24;-20995.72;;;4.78;40.77
12486;BME280;6307;46.804;11.580;2023-02-28T07:10:53;-20997.50;;;4.84;40.27
12486;BME280;6307;46.804;11.580;2023-02-28T07:13:20;-20997.38;;;4.84;40.17
12486;BME280;6307;46.804;11.580;2023-02-28T07:16:07;-20994.81;;;4.75;41.58
12486;BME280;6307;46.804;11.580;2023-02-28T07:18:36;-20989.97;;;4.59;41.17
12486;BME280;6307;46.804;11.580;2023-02-28T07:21:04;-20990.75;;;4.62;41.55
12486;BME280;6307;46.804;11.580;2023-02-28T07:23:33;-20989.97;;;4.59;41.30
12486;BME280;6307;46.804;11.580;2023-02-28T07:26:00;-20995.72;;;4.78;41.13
12486;BME280;6307;46.804;11.580;2023-02-28T07:28:26;-20994.97;;;4.76;40.64
12486;BME280;6307;46.804;11.580;2023-02-28T07:30:52;-20994.97;;;4.76;40.60
12486;BME280;6307;46.804;11.580;2023-02-28T07:33:18;-20998.41;;;4.87;41.46
12486;BME280;6307;46.804;11.580;2023-02-28T07:35:44;-20998.25;;;4.87;40.88
12486;BME280;6307;46.804;11.580;2023-02-28T07:38:11;-20997.06;;;4.83;41.19
12486;BME280;6307;46.804;11.580;2023-02-28T07:40:39;-21021.28;;;5.63;39.52
12486;BME280;6307;46.804;11.580;2023-02-28T07:43:05;-21027.47;;;5.84;38.81
12486;BME280;6307;46.804;11.580;2023-02-28T07:45:31;-21003.84;;;5.05;39.88
12486;BME280;6307;46.804;11.580;2023-02-28T07:47:59;-21005.50;;;5.11;40.52
12486;BME280;6307;46.804;11.580;2023-02-28T07:50:26;-21002.78;;;5.02;40.72
12486;BME280;6307;46.804;11.580;2023-02-28T07:52:57;-20986.97;;;4.49;41.91
12486;BME280;6307;46.804;11.580;2023-02-28T07:55:23;-20991.03;;;4.63;41.55
12486;BME280;6307;46.804;11.580;2023-02-28T07:57:49;-20994.50;;;4.74;41.51
12486;BME280;6307;46.804;11.580;2023-02-28T08:00:16;-20987.88;;;4.52;41.95
12486;BME280;6307;46.804;11.580;2023-02-28T08:02:42;-20987.44;;;4.51;41.63
12486;BME280;6307;46.804;11.580;2023-02-28T08:05:08;-21001.13;;;4.96;41.02
12486;BME280;6307;46.804;11.580;2023-02-28T08:07:35;-21002.50;;;5.01;41.60
12486;BME280;6307;46.804;11.580;2023-02-28T08:10:01;-21017.69;;;5.51;40.16
12486;BME280;6307;46.804;11.580;2023-02-28T08:12:27;-21008.97;;;5.22;39.87
12486;BME280;6307;46.804;11.580;2023-02-28T08:14:53;-21022.50;;;5.67;39.79
12486;BME280;6307;46.804;11.580;2023-02-28T08:17:19;-21010.75;;;5.28;39.69
12486;BME280;6307;46.804;11.580;2023-02-28T08:19:46;-21036.81;;;6.15;38.51
12486;BME280;6307;46.804;11.580;2023-02-28T08:22:12;-21048.09;;;6.52;38.51
12486;BME280;6307;46.804;11.580;2023-02-28T08:24:40;-21018.28;;;5.53;39.28
12486;BME280;6307;46.804;11.580;2023-02-28T08:27:07;-21022.34;;;5.67;39.55
12486;BME280;6307;46.804;11.580;2023-02-28T08:29:33;-21025.38;;;5.77;38.84
12486;BME280;6307;46.804;11.580;2023-02-28T08:32:03;-21037.72;;;6.18;39.14
12486;BME280;6307;46.804;11.580;2023-02-28T08:34:30;-21040.41;;;6.27;38.20
12486;BME280;6307;46.804;11.580;2023-02-28T08:36:56;-21045.22;;;6.43;37.97
12486;BME280;6307;46.804;11.580;2023-02-28T08:39:22;-21044.94;;;6.42;37.53
12486;BME280;6307;46.804;11.580;2023-02-28T08:41:48;-21032.00;;;5.99;39.22
12486;BME280;6307;46.804;11.580;2023-02-28T08:44:14;-21015.59;;;5.44;39.05
12486;BME280;6307;46.804;11.580;2023-02-28T08:46:40;-21026.56;;;5.81;38.96
12486;BME280;6307;46.804;11.580;2023-02-28T08:49:06;-21016.34;;;5.47;39.06
12486;BME280;6307;46.804;11.580;2023-02-28T08:51:35;-21013.63;;;5.38;39.56
12486;BME280;6307;46.804;11.580;2023-02-28T08:54:01;-21012.56;;;5.34;39.46
12486;BME280;6307;46.804;11.580;2023-02-28T08:56:28;-21006.53;;;5.14;39.59
12486;BME280;6307;46.804;11.580;2023-02-28T08:58:55;-21018.00;;;5.52;39.23
12486;BME280;6307;46.804;11.580;2023-02-28T09:01:28;-21035.59;;;6.11;37.74
12486;BME280;6307;46.804;11.580;2023-02-28T09:03:57;-21027.63;;;5.84;38.36
12486;BME280;6307;46.804;11.580;2023-02-28T09:06:25;-21031.25;;;5.96;38.25
12486;BME280;6307;46.804;11.580;2023-02-28T09:08:52;-21033.03;;;6.02;37.94
12486;BME280;6307;46.804;11.580;2023-02-28T09:11:21;-21041.03;;;6.29;38.44
12486;BME280;6307;46.804;11.580;2023-02-28T09:13:47;-21046.13;;;6.46;38.70
12486;BME280;6307;46.804;11.580;2023-02-28T09:16:15;-21042.38;;;6.33;39.78
12486;BME280;6307;46.804;11.580;2023-02-28T09:18:42;-21045.22;;;6.43;37.32
12486;BME280;6307;46.804;11.580;2023-02-28T09:21:12;-21046.59;;;6.47;39.32
12486;BME280;6307;46.804;11.580;2023-02-28T09:23:42;-21046.28;;;6.46;37.55
12486;BME280;6307;46.804;11.580;2023-02-28T09:26:17;-21043.72;;;6.38;38.87
12486;BME280;6307;46.804;11.580;2023-02-28T09:28:45;-21045.53;;;6.44;37.84
12486;BME280;6307;46.804;11.580;2023-02-28T09:31:16;-21043.56;;;6.37;38.18
12486;BME280;6307;46.804;11.580;2023-02-28T09:33:48;-21038.75;;;6.21;38.99
12486;BME280;6307;46.804;11.580;2023-02-28T09:36:15;-21048.84;;;6.55;38.45
12486;BME280;6307;46.804;11.580;2023-02-28T09:38:42;-21038.16;;;6.19;40.63
12486;BME280;6307;46.804;11.580;2023-02-28T09:41:21;-21035.44;;;6.10;40.29
12486;BME280;6307;46.804;11.580;2023-02-28T09:43:54;-21036.66;;;6.14;40.04
12486;BME280;6307;46.804;11.580;2023-02-28T09:46:29;-21029.28;;;5.90;40.86
12486;BME280;6307;46.804;11.580;2023-02-28T09:49:01;-21029.28;;;5.90;39.77
12486;BME280;6307;46.804;11.580;2023-02-28T09:54:17;-21034.25;;;6.06;40.35
12486;BME280;6307;46.804;11.580;2023-02-28T09:57:00;-21036.06;;;6.12;40.83
12486;BME280;6307;46.804;11.580;2023-02-28T10:00:18;-21042.22;;;6.33;38.75
12486;BME280;6307;46.804;11.580;2023-02-28T10:03:22;-21051.25;;;6.63;39.21
12486;BME280;6307;46.804;11.580;2023-02-28T10:08:46;-21037.56;;;6.17;38.62
12486;BME280;6307;46.804;11.580;2023-02-28T10:11:16;-21043.13;;;6.36;40.47
12486;BME280;6307;46.804;11.580;2023-02-28T10:16:37;-21045.69;;;6.44;39.51
12486;BME280;6307;46.804;11.580;2023-02-28T10:19:34;-21045.06;;;6.42;40.04
12486;BME280;6307;46.804;11.580;2023-02-28T10:22:13;-21039.38;;;6.23;39.37
12486;BME280;6307;46.804;11.580;2023-02-28T10:25:24;-21045.97;;;6.45;41.13
12486;BME280;6307;46.804;11.580;2023-02-28T10:28:05;-21057.72;;;6.84;39.79
12486;BME280;6307;46.804;11.580;2023-02-28T10:30:40;-21045.81;;;6.45;39.38
12486;BME280;6307;46.804;11.580;2023-02-28T10:33:18;-21051.25;;;6.63;39.17
12486;BME280;6307;46.804;11.580;2023-02-28T10:35:55;-21053.19;;;6.69;38.49
12486;BME280;6307;46.804;11.580;2023-02-28T10:38:32;-21048.09;;;6.52;40.06
12486;BME280;6307;46.804;11.580;2023-02-28T10:43:41;-21039.66;;;6.24;40.46
12486;BME280;6307;46.804;11.580;2023-02-28T10:46:11;-21040.72;;;6.28;41.36
12486;BME280;6307;46.804;11.580;2023-02-28T10:49:06;-21048.25;;;6.53;40.49
12486;BME280;6307;46.804;11.580;2023-02-28T10:51:41;-21042.38;;;6.33;41.25
12486;BME280;6307;46.804;11.580;2023-02-28T10:54:29;-21055.31;;;6.76;41.01
12486;BME280;6307;46.804;11.580;2023-02-28T10:57:19;-21051.69;;;6.64;40.96
12486;BME280;6307;46.804;11.580;2023-02-28T10:59:53;-21055.16;;;6.76;40.26
12486;BME280;6307;46.804;11.580;2023-02-28T11:02:38;-21073.50;;;7.36;38.04
12486;BME280;6307;46.804;11.580;2023-02-28T11:05:31;-21058.75;;;6.88;40.31
12486;BME280;6307;46.804;11.580;2023-02-28T11:08:06;-21065.69;;;7.11;39.98
12486;BME280;6307;46.804;11.580;2023-02-28T11:10:48;-21068.38;;;7.20;38.62
12486;BME280;6307;46.804;11.580;2023-02-28T11:13:26;-21069.59;;;7.23;39.05
12486;BME280;6307;46.804;11.580;2023-02-28T11:15:59;-21077.56;;;7.50;40.05
12486;BME280;6307;46.804;11.580;2023-02-28T11:21:27;-21087.91;;;7.84;37.44
12486;BME280;6307;46.804;11.580;2023-02-28T11:24:24;-21093.47;;;8.03;41.51
12486;BME280;6307;46.804;11.580;2023-02-28T11:26:57;-21107.91;;;8.51;38.17
12486;BME280;6307;46.804;11.580;2023-02-28T11:29:28;-21114.50;;;8.73;37.41
12486;BME280;6307;46.804;11.580;2023-02-28T11:34:29;-21132.97;;;9.34;35.70
12486;BME280;6307;46.804;11.580;2023-02-28T11:36:58;-21142.44;;;9.66;35.35
12486;BME280;6307;46.804;11.580;2023-02-28T11:39:26;-21145.00;;;9.74;34.59
12486;BME280;6307;46.804;11.580;2023-02-28T11:42:31;-21137.94;;;9.51;34.97
12486;BME280;6307;46.804;11.580;2023-02-28T11:48:57;-21160.91;;;10.27;33.98
12486;BME280;6307;46.804;11.580;2023-02-28T12:00:34;-21164.34;;;10.39;32.83
12486;BME280;6307;46.804;11.580;2023-02-28T12:03:39;-21137.63;;;9.50;34.23
12486;BME280;6307;46.804;11.580;2023-02-28T12:06:46;-21156.69;;;10.13;33.62
12486;BME280;6307;46.804;11.580;2023-02-28T12:12:11;-21172.00;;;10.64;33.71
12486;BME280;6307;46.804;11.580;2023-02-28T12:15:05;-21163.44;;;10.36;34.68
12486;BME280;6307;46.804;11.580;2023-02-28T12:18:26;-21160.28;;;10.25;34.31
12486;BME280;6307;46.804;11.580;2023-02-28T12:24:02;-21163.00;;;10.34;33.96
12486;BME280;6307;46.804;11.580;2023-02-28T12:26:52;-21161.03;;;10.28;34.05
12486;BME280;6307;46.804;11.580;2023-02-28T12:29:23;-21162.69;;;10.33;34.46
12486;BME280;6307;46.804;11.580;2023-02-28T12:32:06;-21158.34;;;10.19;33.24
12486;BME280;6307;46.804;11.580;2023-02-28T12:34:44;-21154.16;;;10.05;33.98
12486;BME280;6307;46.804;11.580;2023-02-28T12:37:36;-21153.53;;;10.03;35.28
12486;BME280;6307;46.804;11.580;2023-02-28T12:43:09;-21158.66;;;10.20;34.77
12486;BME280;6307;46.804;11.580;2023-02-28T12:45:58;-21155.94;;;10.11;34.51
12486;BME280;6307;46.804;11.580;2023-02-28T12:48:35;-21156.41;;;10.12;34.02
12486;BME280;6307;46.804;11.580;2023-02-28T12:51:12;-21151.88;;;9.97;34.80
12486;BME280;6307;46.804;11.580;2023-02-28T12:53:54;-21149.78;;;9.90;35.31
12486;BME280;6307;46.804;11.580;2023-02-28T12:57:05;-21143.63;;;9.70;35.58
12486;BME280;6307;46.804;11.580;2023-02-28T13:00:10;-21141.69;;;9.63;35.38
12486;BME280;6307;46.804;11.580;2023-02-28T13:03:08;-21157.44;;;10.16;34.21
12486;BME280;6307;46.804;11.580;2023-02-28T13:09:11;-21150.84;;;9.94;35.23
12486;BME280;6307;46.804;11.580;2023-02-28T13:11:49;-21153.25;;;10.02;33.65
12486;BME280;6307;46.804;11.580;2023-02-28T13:14:36;-21153.53;;;10.03;34.59
12486;BME280;6307;46.804;11.580;2023-02-28T13:28:00;-21147.84;;;9.84;34.52
12486;BME280;6307;46.804;11.580;2023-02-28T13:41:41;-21144.38;;;9.72;36.04
12486;BME280;6307;46.804;11.580;2023-02-28T13:49:25;-21133.13;;;9.35;37.11
12486;BME280;6307;46.804;11.580;2023-02-28T13:52:07;-21131.47;;;9.29;37.30
12486;BME280;6307;46.804;11.580;2023-02-28T14:05:42;-21131.34;;;9.29;36.63
12486;BME280;6307;46.804;11.580;2023-02-28T14:08:15;-21122.19;;;8.98;37.27
12486;BME280;6307;46.804;11.580;2023-02-28T14:10:48;-21122.31;;;8.99;37.47
12486;BME280;6307;46.804;11.580;2023-02-28T14:16:09;-21117.22;;;8.82;37.66
12486;BME280;6307;46.804;11.580;2023-02-28T14:18:42;-21128.19;;;9.18;36.04
12486;BME280;6307;46.804;11.580;2023-02-28T14:21:39;-21123.97;;;9.04;37.15
12486;BME280;6307;46.804;11.580;2023-02-28T14:30:24;-21129.69;;;9.23;36.66
12486;BME280;6307;46.804;11.580;2023-02-28T14:33:22;-21117.06;;;8.81;37.18
12486;BME280;6307;46.804;11.580;2023-02-28T14:36:03;-21129.69;;;9.23;36.25
12486;BME280;6307;46.804;11.580;2023-02-28T14:38:51;-21132.22;;;9.32;36.89
12486;BME280;6307;46.804;11.580;2023-02-28T14:41:24;-21133.28;;;9.35;36.53
12486;BME280;6307;46.804;11.580;2023-02-28T14:43:59;-21137.94;;;9.51;35.87
12486;BME280;6307;46.804;11.580;2023-02-28T14:46:46;-21133.59;;;9.36;35.73
12486;BME280;6307;46.804;11.580;2023-02-28T14:54:35;-21121.56;;;8.96;37.47
12486;BME280;6307;46.804;11.580;2023-02-28T14:57:03;-21125.78;;;9.10;37.47
12486;BME280;6307;46.804;11.580;2023-02-28T14:59:33;-21126.53;;;9.13;36.58
12486;BME280;6307;46.804;11.580;2023-02-28T15:02:21;-21126.97;;;9.14;38.37
12486;BME280;6307;46.804;11.580;2023-02-28T15:05:01;-21121.28;;;8.95;36.39
12486;BME280;6307;46.804;11.580;2023-02-28T15:07:42;-21126.53;;;9.13;35.61
12486;BME280;6307;46.804;11.580;2023-02-28T15:10:20;-21129.69;;;9.23;35.84
12486;BME280;6307;46.804;11.580;2023-02-28T15:12:57;-21129.09;;;9.21;35.44
12486;BME280;6307;46.804;11.580;2023-02-28T15:21:11;-21121.13;;;8.95;36.67
12486;BME280;6307;46.804;11.580;2023-02-28T15:23:42;-21123.38;;;9.02;38.02
12486;BME280;6307;46.804;11.580;2023-02-28T15:26:19;-21118.72;;;8.87;36.30
12486;BME280;6307;46.804;11.580;2023-02-28T15:29:02;-21121.44;;;8.96;36.39
12486;BME280;6307;46.804;11.580;2023-02-28T15:31:43;-21121.56;;;8.96;36.23
12486;BME280;6307;46.804;11.580;2023-02-28T15:34:22;-21121.13;;;8.95;36.44
12486;BME280;6307;46.804;11.580;2023-02-28T15:39:56;-21117.97;;;8.84;37.18
12486;BME280;6307;46.804;11.580;2023-02-28T15:42:31;-21113.47;;;8.69;37.94
12486;BME280;6307;46.804;11.580;2023-02-28T15:44:57;-21108.81;;;8.54;37.96
12486;BME280;6307;46.804;11.580;2023-02-28T15:47:27;-21110.00;;;8.58;38.26
12486;BME280;6307;46.804;11.580;2023-02-28T15:52:43;-21103.69;;;8.37;38.17
12486;BME280;6307;46.804;11.580;2023-02-28T15:55:22;-21101.44;;;8.29;38.40
12486;BME280;6307;46.804;11.580;2023-02-28T15:57:53;-21094.09;;;8.05;39.33
12486;BME280;6307;46.804;11.580;2023-02-28T16:00:27;-21095.28;;;8.09;38.73
12486;BME280;6307;46.804;11.580;2023-02-28T16:02:55;-21092.72;;;8.00;39.11